Terminal Aerodrome Forecast
Issued by NWS Charleston, WV

Current Version | Previous Version | Graphics & Text | Print | Product List | Glossary On
Versions: 1 2 3 4 5 6 7 8 9 10 11 12 13 14 15 16 17 18 19 20 21 22 23 24 25 26 27 28 29 30 31
000
FTUS41 KRLX 271100
TAFCRW
TAF
KCRW 271135Z 2712/2812 VRB03KT P6SM SKC
     FM271500 34007KT P6SM SCT060
     FM271800 32011G19KT P6SM BKN050
     FM280000 33007KT P6SM SCT050
     FM280900 00000KT 6SM BR SCT045=

USA.gov is the U.S. government's official web portal to all federal, state and local government web resources and services.